Time;durP1;ratioP1;P1;durP2;ratioP2;P2;SDS_P1;SDS_P2;PMS_P1;PMS_P2;Temp;Humidity;BMP_temperature;BMP_pressure;BME280_temperature;BME280_humidity;BME280_pressure;Samples;Min_cycle;Max_cycle;Signal;HPM_P1;HPM_P2
2022/05/20 00:00:17;;;;;;;8.50;5.70;;;17.50;91.20;;;;;;7362272;19;20023;-62
2022/05/20 00:02:50;;;;;;;10.07;6.38;;;17.30;89.70;;;;;;7361872;19;20015;-62
2022/05/20 00:05:20;;;;;;;9.57;6.00;;;17.20;92.70;;;;;;7371743;19;20478;-62
2022/05/20 00:07:50;;;;;;;9.82;6.85;;;17.30;94.00;;;;;;7370515;19;20086;-62
2022/05/20 00:10:20;;;;;;;8.60;6.38;;;17.30;95.10;;;;;;7383050;19;20021;-63
2022/05/20 00:12:50;;;;;;;7.25;6.22;;;17.30;95.30;;;;;;7389643;19;20031;-62
2022/05/20 00:15:23;;;;;;;8.48;6.50;;;17.30;95.50;;;;;;7367836;19;20014;-61
2022/05/20 00:17:56;;;;;;;11.23;6.65;;;17.40;95.30;;;;;;7369654;19;20010;-61
2022/05/20 00:20:29;;;;;;;8.20;6.65;;;17.40;96.10;;;;;;7370063;19;20135;-61
2022/05/20 00:22:59;;;;;;;10.20;6.43;;;17.50;95.70;;;;;;7367527;19;20765;-61
2022/05/20 00:28:12;;;;;;;7.43;6.35;;;17.50;91.20;;;;;;7391168;19;20014;-61
2022/05/20 00:30:42;;;;;;;10.10;6.30;;;17.60;83.20;;;;;;7367391;19;20090;-61
2022/05/20 00:33:14;;;;;;;9.45;6.60;;;17.70;75.10;;;;;;7366322;19;20290;-61
2022/05/20 00:35:45;;;;;;;7.70;6.43;;;17.90;65.50;;;;;;7369055;19;20014;-61
2022/05/20 00:38:15;;;;;;;7.25;6.03;;;17.90;62.40;;;;;;7368688;19;20027;-62
2022/05/20 00:40:46;;;;;;;6.82;6.13;;;17.90;61.30;;;;;;7369266;19;20027;-62
2022/05/20 00:43:24;;;;;;;8.35;6.13;;;17.70;62.30;;;;;;7387971;19;20573;-62
2022/05/20 00:45:56;;;;;;;12.73;6.68;;;17.70;65.10;;;;;;7368363;19;20006;-62
2022/05/20 00:48:30;;;;;;;9.63;7.03;;;17.60;65.40;;;;;;7368391;19;20038;-62
2022/05/20 00:51:04;;;;;;;9.23;7.05;;;17.60;66.70;;;;;;7363592;19;20015;-62
2022/05/20 00:53:38;;;;;;;8.65;6.75;;;17.60;70.80;;;;;;7365387;19;20071;-61
2022/05/20 00:56:11;;;;;;;9.50;7.50;;;17.70;71.20;;;;;;7369379;19;20013;-62
2022/05/20 00:58:43;;;;;;;9.43;6.43;;;17.80;68.90;;;;;;7366841;19;20078;-62
2022/05/20 01:01:13;;;;;;;7.78;6.15;;;17.80;63.60;;;;;;7388044;19;20031;-62
2022/05/20 01:03:46;;;;;;;11.63;6.88;;;17.70;62.50;;;;;;7363969;19;20081;-62
2022/05/20 01:06:16;;;;;;;8.67;6.77;;;17.80;60.20;;;;;;7367704;19;20481;-62
2022/05/20 01:08:46;;;;;;;14.10;7.97;;;17.80;58.60;;;;;;7366904;19;20007;-62
2022/05/20 01:11:16;;;;;;;10.07;6.80;;;17.80;58.50;;;;;;7366281;19;20065;-62
2022/05/20 01:13:48;;;;;;;12.60;6.70;;;17.70;59.20;;;;;;7363951;19;20074;-62
2022/05/20 01:16:19;;;;;;;8.43;6.70;;;17.60;60.40;;;;;;7390477;19;20070;-62
2022/05/20 01:18:56;;;;;;;9.55;7.00;;;17.60;61.70;;;;;;7365931;19;20370;-62
2022/05/20 01:21:26;;;;;;;8.18;6.68;;;17.60;63.70;;;;;;7367104;19;20007;-62
2022/05/20 01:24:05;;;;;;;10.13;7.07;;;17.60;67.90;;;;;;7363335;19;20010;-62
2022/05/20 01:26:35;;;;;;;11.38;7.40;;;17.50;69.20;;;;;;7369758;19;20021;-62
2022/05/20 01:29:05;;;;;;;12.48;6.88;;;17.60;68.80;;;;;;7364177;19;20062;-62
2022/05/20 01:31:35;;;;;;;9.15;7.03;;;17.60;66.20;;;;;;7370089;19;20613;-62
2022/05/20 01:34:05;;;;;;;8.88;6.20;;;17.40;66.20;;;;;;7385449;19;20164;-62
2022/05/20 01:36:35;;;;;;;9.77;6.97;;;17.30;66.90;;;;;;7368330;19;20499;-62
2022/05/20 01:39:07;;;;;;;8.48;6.60;;;17.50;68.70;;;;;;7362827;19;20115;-62
2022/05/20 01:41:44;;;;;;;10.32;7.07;;;17.40;68.40;;;;;;7368969;19;20017;-62
2022/05/20 01:44:20;;;;;;;8.38;6.53;;;17.40;68.00;;;;;;7363536;19;20015;-61
2022/05/20 01:47:00;;;;;;;9.48;6.93;;;17.40;67.00;;;;;;7365968;19;20031;-62
2022/05/20 01:49:39;;;;;;;9.43;7.05;;;17.40;66.00;;;;;;7361102;19;20030;-62
2022/05/20 01:52:18;;;;;;;10.35;7.93;;;17.30;67.20;;;;;;7388879;19;20036;-62
2022/05/20 01:54:59;;;;;;;14.90;7.07;;;17.40;70.10;;;;;;7361580;19;20154;-62
2022/05/20 01:57:33;;;;;;;14.18;7.68;;;17.40;72.20;;;;;;7365096;19;20012;-62
2022/05/20 02:00:09;;;;;;;9.13;7.30;;;17.30;72.60;;;;;;7361677;19;20013;-62
2022/05/20 02:02:45;;;;;;;9.93;7.53;;;17.30;73.60;;;;;;7367056;19;20038;-61
2022/05/20 02:05:22;;;;;;;7.97;7.15;;;17.40;74.20;;;;;;7362249;19;20499;-62
2022/05/20 02:07:58;;;;;;;9.88;7.70;;;17.30;72.70;;;;;;7362672;19;20073;-62
2022/05/20 02:10:36;;;;;;;8.13;6.80;;;17.30;71.40;;;;;;7363735;19;20018;-62
2022/05/20 02:13:08;;;;;;;12.15;7.20;;;17.30;69.20;;;;;;7383861;19;20023;-62
2022/05/20 02:15:44;;;;;;;10.98;8.00;;;17.30;66.70;;;;;;7364480;19;20517;-62
2022/05/20 02:18:19;;;;;;;8.90;7.25;;;17.30;66.60;;;;;;7362782;19;20039;-62
2022/05/20 02:20:52;;;;;;;11.10;8.05;;;17.30;65.70;;;;;;7363636;19;20031;-62
2022/05/20 02:23:28;;;;;;;10.55;7.55;;;17.20;64.20;;;;;;7357167;19;20018;-62
2022/05/20 02:26:05;;;;;;;8.00;7.20;;;17.30;63.50;;;;;;7360630;19;20069;-62
2022/05/20 02:28:41;;;;;;;10.93;7.43;;;17.30;62.70;;;;;;7385103;19;20066;-62
2022/05/20 02:31:14;;;;;;;9.77;7.68;;;17.30;64.30;;;;;;7363281;19;20466;-62
2022/05/20 02:33:44;;;;;;;10.60;7.15;;;17.30;66.90;;;;;;7358781;19;20018;-62
2022/05/20 02:36:21;;;;;;;14.38;7.50;;;17.20;66.70;;;;;;7366213;19;20063;-62
2022/05/20 02:38:51;;;;;;;9.57;7.28;;;17.20;66.80;;;;;;7363614;19;20014;-62
2022/05/20 02:41:23;;;;;;;11.30;7.25;;;17.20;63.20;;;;;;7363871;19;20014;-62
2022/05/20 02:43:53;;;;;;;11.40;7.38;;;17.20;63.60;;;;;;7382358;19;20082;-62
2022/05/20 02:46:23;;;;;;;9.63;7.95;;;17.20;62.50;;;;;;7365174;19;20018;-62
2022/05/20 02:48:53;;;;;;;12.88;8.30;;;17.10;65.30;;;;;;7362565;19;20014;-62
2022/05/20 02:51:23;;;;;;;13.57;9.80;;;17.00;67.60;;;;;;7363096;19;20006;-62
2022/05/20 02:53:53;;;;;;;10.88;8.32;;;17.00;69.90;;;;;;7361221;19;20197;-62
2022/05/20 02:56:25;;;;;;;11.35;8.80;;;16.90;72.30;;;;;;7366745;19;20031;-62
2022/05/20 03:04:21;;;;;;;10.32;7.93;;;16.90;77.50;;;;;;7360372;19;20453;-61
2022/05/20 03:06:54;;;;;;;10.93;8.13;;;16.90;76.80;;;;;;7366197;19;20039;-60
2022/05/20 03:09:27;;;;;;;10.45;8.63;;;16.90;74.60;;;;;;7358092;19;20094;-61
2022/05/20 03:11:59;;;;;;;11.88;8.70;;;17.00;73.80;;;;;;7364831;19;20006;-61
2022/05/20 03:14:29;;;;;;;12.10;8.85;;;16.90;72.90;;;;;;7358584;19;20011;-62
2022/05/20 03:17:01;;;;;;;9.18;7.60;;;16.90;74.00;;;;;;7366380;19;20017;-62
2022/05/20 03:19:31;;;;;;;10.27;8.27;;;17.00;74.70;;;;;;7380602;19;20006;-61
2022/05/20 03:22:02;;;;;;;12.25;8.05;;;16.90;73.70;;;;;;7365735;19;20112;-61
2022/05/20 03:24:32;;;;;;;11.98;8.40;;;16.90;74.40;;;;;;7360143;19;20023;-61
2022/05/20 03:27:06;;;;;;;11.05;7.95;;;16.90;74.00;;;;;;7365842;19;20011;-61
2022/05/20 03:29:36;;;;;;;12.52;8.23;;;16.90;74.00;;;;;;7361030;19;20023;-61
2022/05/20 03:32:07;;;;;;;9.70;8.57;;;17.00;72.50;;;;;;7366209;19;20015;-61
2022/05/20 03:34:37;;;;;;;11.77;8.95;;;16.90;69.70;;;;;;7380652;19;20014;-62
2022/05/20 03:37:07;;;;;;;11.68;9.32;;;16.80;69.00;;;;;;7365954;19;20015;-61
2022/05/20 03:39:38;;;;;;;13.27;8.95;;;16.80;72.80;;;;;;7364305;19;20027;-62
2022/05/20 03:42:10;;;;;;;13.35;9.30;;;16.80;74.90;;;;;;7373826;19;20010;-62
2022/05/20 03:44:40;;;;;;;12.63;9.10;;;16.80;73.50;;;;;;7368016;19;20024;-62
2022/05/20 03:47:10;;;;;;;9.68;8.13;;;16.90;75.40;;;;;;7372464;19;20010;-61
2022/05/20 03:49:40;;;;;;;9.93;8.63;;;17.00;73.80;;;;;;7388836;19;20447;-62
2022/05/20 03:52:11;;;;;;;13.05;8.30;;;17.10;65.90;;;;;;7372238;19;20021;-61
2022/05/20 03:54:42;;;;;;;14.43;8.85;;;17.20;64.30;;;;;;7364904;19;20117;-61
2022/05/20 03:57:14;;;;;;;10.10;7.95;;;17.20;62.90;;;;;;7373282;19;20006;-61
2022/05/20 03:59:44;;;;;;;9.82;7.75;;;17.20;62.00;;;;;;7367266;19;20014;-61
2022/05/20 04:02:13;;;;;;;10.70;8.68;;;17.30;61.80;;;;;;7372209;19;20015;-61
2022/05/20 04:04:45;;;;;;;14.52;8.27;;;17.40;61.00;;;;;;7388279;19;20046;-61
2022/05/20 04:07:16;;;;;;;12.45;8.65;;;17.40;59.40;;;;;;7371907;19;20072;-61
2022/05/20 04:09:48;;;;;;;11.27;8.60;;;17.30;59.10;;;;;;7365797;19;20408;-61
2022/05/20 04:12:28;;;;;;;11.98;9.07;;;17.30;60.00;;;;;;7371234;19;20010;-61
2022/05/20 04:14:58;;;;;;;13.30;8.93;;;17.30;61.50;;;;;;7363816;19;20045;-61
2022/05/20 04:17:29;;;;;;;10.27;8.85;;;17.30;63.30;;;;;;7371583;19;20010;-61
2022/05/20 04:20:00;;;;;;;13.50;8.80;;;17.30;62.80;;;;;;7367102;19;20006;-62
2022/05/20 04:22:33;;;;;;;11.20;8.82;;;17.20;63.30;;;;;;7393662;19;20018;-61
2022/05/20 04:25:04;;;;;;;12.23;8.75;;;17.20;63.90;;;;;;7364222;19;20089;-61
2022/05/20 04:27:36;;;;;;;12.82;8.00;;;17.30;61.80;;;;;;7371766;19;20018;-61
2022/05/20 04:30:08;;;;;;;11.23;8.30;;;17.30;55.10;;;;;;7367062;19;20014;-61
2022/05/20 04:32:38;;;;;;;11.45;8.07;;;17.40;53.70;;;;;;7371495;19;20011;-62
2022/05/20 04:35:10;;;;;;;12.10;8.07;;;17.50;55.30;;;;;;7363513;19;20018;-61
2022/05/20 04:37:40;;;;;;;10.00;7.38;;;17.50;53.40;;;;;;7393134;19;20034;-61
2022/05/20 04:40:11;;;;;;;10.38;7.78;;;17.40;52.00;;;;;;7366696;19;20017;-61
2022/05/20 04:48:09;;;;;;;12.13;7.43;;;17.70;51.40;;;;;;7367746;19;20010;-62
2022/05/20 04:50:39;;;;;;;9.40;6.80;;;17.90;50.30;;;;;;7367136;19;20048;-62
2022/05/20 04:54:49;;;;;;;10.30;6.68;;;18.00;46.20;;;;;;7368513;19;20017;-62
2022/05/20 04:55:57;;;;;;;10.23;7.22;;;17.90;44.00;;;;;;7367063;19;20074;-62
2022/05/20 04:58:30;;;;;;;9.20;7.75;;;18.60;32.80;;;;;;7389888;19;20129;-62
2022/05/20 05:01:00;;;;;;;10.90;7.07;;;19.40;23.90;;;;;;7367228;19;20025;-62
2022/05/20 05:03:30;;;;;;;8.75;6.70;;;19.50;17.70;;;;;;7367156;19;20462;-62
2022/05/20 05:06:00;;;;;;;14.05;7.05;;;20.30;14.80;;;;;;7368741;19;20035;-60
2022/05/20 05:08:30;;;;;;;11.43;6.75;;;20.40;9.20;;;;;;7367453;19;20074;-62
2022/05/20 05:11:00;;;;;;;13.32;7.00;;;21.60;4.40;;;;;;7366521;19;20007;-61
2022/05/20 05:13:32;;;;;;;10.10;6.82;;;21.40;3.00;;;;;;7387910;19;20352;-61
2022/05/20 05:16:07;;;;;;;8.23;5.95;;;21.50;1.40;;;;;;7368258;19;20086;-61
2022/05/20 05:18:38;;;;;;;12.75;5.90;;;22.00;1.00;;;;;;7367555;19;20081;-60
2022/05/20 05:21:08;;;;;;;13.20;6.28;;;22.30;1.00;;;;;;7367895;19;20082;-61
2022/05/20 05:23:37;;;;;;;9.07;5.88;;;22.90;1.00;;;;;;7364290;19;20015;-60
2022/05/20 05:26:07;;;;;;;11.45;6.30;;;23.10;1.00;;;;;;7369065;19;20367;-60
2022/05/20 05:28:40;;;;;;;11.77;6.25;;;23.30;1.00;;;;;;7389046;19;20007;-60
2022/05/20 05:31:10;;;;;;;8.05;5.85;;;23.40;1.00;;;;;;7365920;19;20418;-62
2022/05/20 05:33:40;;;;;;;16.38;6.40;;;23.20;1.00;;;;;;7363789;19;20014;-61
2022/05/20 05:36:11;;;;;;;11.02;6.88;;;23.10;1.00;;;;;;7367965;19;20119;-61
2022/05/20 05:38:41;;;;;;;11.45;6.75;;;22.30;1.00;;;;;;7365021;19;20006;-61
2022/05/20 05:41:13;;;;;;;8.48;6.38;;;22.20;1.00;;;;;;7366922;19;20006;-62
2022/05/20 05:43:45;;;;;;;10.05;6.70;;;22.80;1.00;;;;;;7386126;19;20010;-63
2022/05/20 05:46:15;;;;;;;8.38;5.93;;;22.90;1.00;;;;;;7368230;19;20019;-62
2022/05/20 05:48:45;;;;;;;11.35;6.35;;;22.70;1.00;;;;;;7364946;19;20558;-62
2022/05/20 05:51:15;;;;;;;9.70;6.63;;;22.80;1.00;;;;;;7365943;19;20010;-62
2022/05/20 05:53:45;;;;;;;7.32;5.97;;;22.20;1.00;;;;;;7362372;19;20010;-62
2022/05/20 05:56:15;;;;;;;7.00;5.93;;;21.80;1.00;;;;;;7366545;19;20007;-62
2022/05/20 05:58:47;;;;;;;9.50;6.82;;;22.00;1.00;;;;;;7387781;19;20096;-62
2022/05/20 06:01:17;;;;;;;8.70;6.32;;;21.60;1.00;;;;;;7361938;19;20023;-61
2022/05/20 06:03:47;;;;;;;9.55;6.32;;;21.80;1.10;;;;;;7363488;19;20010;-62
2022/05/20 06:06:17;;;;;;;13.15;6.72;;;21.70;1.00;;;;;;7368008;19;20018;-62
2022/05/20 06:08:47;;;;;;;11.38;6.55;;;22.40;1.00;;;;;;7364824;19;20467;-62
2022/05/20 06:11:17;;;;;;;12.88;6.10;;;22.90;1.00;;;;;;7367973;19;20546;-60
2022/05/20 06:13:49;;;;;;;13.30;6.63;;;23.50;1.00;;;;;;7388219;19;20024;-62
2022/05/20 06:16:21;;;;;;;9.23;6.10;;;22.90;1.00;;;;;;7364879;19;20017;-62
2022/05/20 06:18:51;;;;;;;9.55;6.43;;;23.00;1.00;;;;;;7364581;19;20014;-62
2022/05/20 06:21:21;;;;;;;10.70;6.40;;;23.60;1.00;;;;;;7365371;19;20010;-60
2022/05/20 06:23:51;;;;;;;8.48;6.40;;;23.90;1.00;;;;;;7362552;19;20578;-61
2022/05/20 06:26:21;;;;;;;10.32;5.63;;;24.60;1.00;;;;;;7366290;19;20019;-61
2022/05/20 06:28:53;;;;;;;9.05;6.03;;;24.40;1.00;;;;;;7387115;19;20019;-61
2022/05/20 06:31:23;;;;;;;17.10;6.68;;;25.00;1.00;;;;;;7365327;19;20010;-62
2022/05/20 06:33:53;;;;;;;10.18;5.93;;;24.90;1.00;;;;;;7363471;19;20101;-62
2022/05/20 06:41:51;;;;;;;8.45;5.85;;;23.40;1.00;;;;;;7366853;19;20495;-62
2022/05/20 06:44:24;;;;;;;11.35;5.32;;;23.70;1.00;;;;;;7363316;19;20090;-61
2022/05/20 06:46:55;;;;;;;7.45;4.68;;;23.30;1.00;;;;;;7387978;19;20010;-61
2022/05/20 06:49:24;;;;;;;9.20;5.25;;;23.30;1.00;;;;;;7361428;19;20078;-63
2022/05/20 06:51:56;;;;;;;10.98;5.55;;;23.50;1.00;;;;;;7365348;19;20014;-62
2022/05/20 06:54:26;;;;;;;7.15;5.50;;;24.00;1.00;;;;;;7361255;19;20620;-62
2022/05/20 06:56:56;;;;;;;9.27;4.88;;;24.20;1.00;;;;;;7366222;19;20474;-62
2022/05/20 06:59:28;;;;;;;10.43;5.43;;;24.00;1.00;;;;;;7360229;19;20010;-61
2022/05/20 07:02:00;;;;;;;9.27;5.25;;;24.20;1.00;;;;;;7364840;19;20018;-61
2022/05/20 07:04:50;;;;;;;8.00;4.63;;;24.30;1.00;;;;;;7381475;19;20480;-61
2022/05/20 07:07:20;;;;;;;12.50;4.88;;;24.30;1.00;;;;;;7364613;19;20014;-61
2022/05/20 07:09:50;;;;;;;6.93;4.85;;;24.30;1.00;;;;;;7360191;19;20015;-62
2022/05/20 07:12:20;;;;;;;8.18;5.00;;;24.40;1.00;;;;;;7365431;19;20015;-61
2022/05/20 07:14:52;;;;;;;8.15;4.85;;;24.80;1.00;;;;;;7357717;19;20771;-62
2022/05/20 07:17:23;;;;;;;10.20;5.03;;;25.00;1.00;;;;;;7364922;19;20086;-62
2022/05/20 07:19:53;;;;;;;10.95;4.97;;;24.60;1.00;;;;;;7381643;19;20030;-62
2022/05/20 07:22:23;;;;;;;15.68;5.15;;;24.70;1.00;;;;;;7364409;19;20017;-61
2022/05/20 07:24:55;;;;;;;6.00;4.28;;;25.00;1.00;;;;;;7359185;19;20521;-61
2022/05/20 07:27:25;;;;;;;10.75;4.90;;;25.20;1.00;;;;;;7364257;19;20010;-61
2022/05/20 07:29:57;;;;;;;8.27;4.70;;;25.30;1.00;;;;;;7360932;19;20094;-61
2022/05/20 07:32:27;;;;;;;9.27;4.47;;;25.40;1.00;;;;;;7366731;19;20021;-61
2022/05/20 07:34:57;;;;;;;6.03;4.43;;;25.40;1.00;;;;;;7371806;19;20015;-62
2022/05/20 07:37:27;;;;;;;8.02;4.45;;;25.70;1.00;;;;;;7385529;19;20671;-62
2022/05/20 07:39:57;;;;;;;7.50;4.28;;;25.50;1.00;;;;;;7358995;19;20390;-62
2022/05/20 07:42:27;;;;;;;9.50;4.63;;;25.70;1.00;;;;;;7365157;19;20099;-61
2022/05/20 07:45:01;;;;;;;10.88;5.25;;;25.90;1.00;;;;;;7360470;19;20011;-62
2022/05/20 07:47:31;;;;;;;7.55;4.32;;;25.70;1.00;;;;;;7363878;19;20018;-62
2022/05/20 07:50:04;;;;;;;9.95;4.45;;;25.80;1.00;;;;;;7358840;19;20034;-61
2022/05/20 07:55:23;;;;;;;7.65;4.20;;;26.00;1.00;;;;;;7359529;19;20459;-61
2022/05/20 07:57:54;;;;;;;6.80;4.38;;;26.00;1.00;;;;;;7362305;19;20006;-61
2022/05/20 08:00:27;;;;;;;8.27;4.55;;;26.20;1.00;;;;;;7360261;19;20090;-61
2022/05/20 08:03:01;;;;;;;8.05;4.45;;;26.30;1.00;;;;;;7363859;19;20006;-62
2022/05/20 08:05:30;;;;;;;11.38;4.45;;;26.30;1.00;;;;;;7359537;19;20011;-62
2022/05/20 08:08:03;;;;;;;6.28;4.70;;;26.50;1.00;;;;;;7361061;19;20082;-61
2022/05/20 08:10:36;;;;;;;8.85;4.25;;;26.60;1.00;;;;;;7383012;19;20017;-62
2022/05/20 08:13:06;;;;;;;5.40;4.00;;;26.80;1.00;;;;;;7364125;19;20014;-62
2022/05/20 08:15:38;;;;;;;6.53;3.90;;;27.00;1.00;;;;;;7358571;19;20017;-61
2022/05/20 08:18:09;;;;;;;8.73;4.00;;;27.20;1.00;;;;;;7362464;19;20015;-61
2022/05/20 08:20:39;;;;;;;6.68;3.55;;;27.40;1.00;;;;;;7361063;19;20022;-63
2022/05/20 08:23:09;;;;;;;7.25;4.30;;;27.10;1.00;;;;;;7364842;19;20017;-61
2022/05/20 08:25:39;;;;;;;9.25;4.60;;;27.20;1.00;;;;;;7385082;19;20439;-62
2022/05/20 08:28:10;;;;;;;8.80;4.22;;;26.90;1.00;;;;;;7367758;19;20018;-62
2022/05/20 08:30:42;;;;;;;6.10;4.30;;;27.20;1.00;;;;;;7368739;19;20018;-62
2022/05/20 08:33:12;;;;;;;7.40;4.13;;;27.50;1.00;;;;;;7371365;19;20070;-61
2022/05/20 08:35:42;;;;;;;6.20;4.18;;;27.40;1.00;;;;;;7364381;19;20013;-62
2022/05/20 08:38:11;;;;;;;9.13;3.85;;;27.60;1.00;;;;;;7367914;19;20020;-61
2022/05/20 08:40:46;;;;;;;6.65;4.10;;;27.60;1.00;;;;;;7388355;19;20094;-62
2022/05/20 08:43:16;;;;;;;4.72;3.20;;;28.00;1.00;;;;;;7370390;19;20006;-61
2022/05/20 08:45:49;;;;;;;8.30;3.53;;;28.00;1.00;;;;;;7365445;19;20521;-61
2022/05/20 08:48:19;;;;;;;8.88;3.33;;;28.50;1.00;;;;;;7367225;19;21243;-62
2022/05/20 08:50:51;;;;;;;6.82;3.28;;;28.50;1.00;;;;;;7366781;19;20546;-61
2022/05/20 08:53:26;;;;;;;6.97;3.40;;;28.60;1.00;;;;;;7369814;19;20017;-62
2022/05/20 08:55:56;;;;;;;7.10;3.10;;;28.60;1.00;;;;;;7385246;19;20034;-61
2022/05/20 08:58:26;;;;;;;4.43;3.53;;;28.80;1.00;;;;;;7366292;19;20014;-61
2022/05/20 09:00:59;;;;;;;7.95;3.25;;;28.70;1.00;;;;;;7367576;19;20077;-61
2022/05/20 09:03:29;;;;;;;4.60;3.40;;;28.80;1.00;;;;;;7370581;19;20111;-62
2022/05/20 09:06:07;;;;;;;7.47;3.20;;;28.90;1.00;;;;;;7364291;19;20007;-61
2022/05/20 09:08:37;;;;;;;4.88;3.05;;;29.10;1.00;;;;;;7366330;19;20514;-62
2022/05/20 09:11:13;;;;;;;7.28;3.35;;;29.20;1.00;;;;;;7366951;19;20031;-61
2022/05/20 09:16:30;;;;;;;6.70;3.10;;;29.00;1.00;;;;;;7367108;19;20026;-61
2022/05/20 09:19:08;;;;;;;5.13;3.10;;;28.70;1.00;;;;;;7365656;19;20494;-62
2022/05/20 09:21:40;;;;;;;4.57;2.90;;;29.00;1.00;;;;;;7367898;19;20011;-60
2022/05/20 09:24:18;;;;;;;9.15;3.55;;;29.20;1.00;;;;;;7366339;19;20015;-63
2022/05/20 09:27:03;;;;;;;8.02;3.20;;;29.50;1.00;;;;;;7368840;19;20031;-62
2022/05/20 09:29:38;;;;;;;7.43;3.10;;;29.50;1.00;;;;;;7360283;19;20006;-62
2022/05/20 09:32:31;;;;;;;5.18;3.05;;;29.50;1.00;;;;;;7368732;19;20015;-62
2022/05/20 09:35:03;;;;;;;7.40;3.30;;;29.00;1.00;;;;;;7363560;19;20038;-62
2022/05/20 09:37:35;;;;;;;6.47;3.53;;;29.10;1.00;;;;;;7386264;19;20010;-61
2022/05/20 09:40:25;;;;;;;5.55;3.33;;;29.30;1.00;;;;;;7362333;19;20018;-62
2022/05/20 09:43:25;;;;;;;7.80;3.97;;;29.50;1.00;;;;;;7368500;19;20047;-60
2022/05/20 09:45:57;;;;;;;4.70;3.03;;;29.50;1.00;;;;;;7363781;19;20474;-61
2022/05/20 09:48:38;;;;;;;6.88;3.83;;;29.30;1.00;;;;;;7366097;19;20035;-61
2022/05/20 09:51:17;;;;;;;6.57;3.50;;;29.50;1.00;;;;;;7364429;19;20010;-62
2022/05/20 09:54:06;;;;;;;7.30;3.45;;;29.40;1.00;;;;;;7363552;19;20018;-63
2022/05/20 09:56:41;;;;;;;7.82;3.40;;;29.70;1.00;;;;;;7366771;19;20021;-62
2022/05/20 09:59:25;;;;;;;6.85;3.72;;;29.80;1.00;;;;;;7362007;19;20014;-62
2022/05/20 10:02:03;;;;;;;6.43;3.30;;;29.60;1.00;;;;;;7390202;19;20137;-61
2022/05/20 10:04:49;;;;;;;5.30;3.58;;;29.90;1.00;;;;;;7363342;19;20014;-62
2022/05/20 10:07:29;;;;;;;7.40;4.35;;;29.80;1.00;;;;;;7368036;19;20117;-61
2022/05/20 10:10:07;;;;;;;7.68;3.65;;;29.80;1.00;;;;;;7361219;19;20032;-61
2022/05/20 10:12:41;;;;;;;5.60;3.70;;;29.50;1.00;;;;;;7367481;19;20118;-62
2022/05/20 10:15:20;;;;;;;6.70;3.90;;;29.80;1.00;;;;;;7363100;19;20015;-60
2022/05/20 10:18:02;;;;;;;6.85;4.10;;;29.70;1.00;;;;;;7365917;19;20130;-62
2022/05/20 10:20:38;;;;;;;6.53;4.10;;;29.80;1.00;;;;;;7363273;19;20077;-62
2022/05/20 10:23:18;;;;;;;6.85;3.65;;;29.80;1.00;;;;;;7367316;19;20038;-62
2022/05/20 10:25:54;;;;;;;7.63;3.60;;;29.90;1.00;;;;;;7383241;19;20018;-60
2022/05/20 10:34:05;;;;;;;4.75;3.67;;;29.40;1.00;;;;;;7361971;19;20007;-61
2022/05/20 10:36:49;;;;;;;5.85;3.28;;;29.50;1.00;;;;;;7366594;19;20116;-62
2022/05/20 10:39:30;;;;;;;5.78;3.58;;;29.80;1.00;;;;;;7361883;19;20007;-61
2022/05/20 10:42:27;;;;;;;7.63;3.33;;;29.60;1.00;;;;;;7365471;19;20055;-62
2022/05/20 10:50:53;;;;;;;7.82;3.80;;;30.40;1.00;;;;;;7359879;19;20110;-62
2022/05/20 10:53:37;;;;;;;5.82;3.53;;;30.50;1.00;;;;;;7364905;19;20018;-62
2022/05/20 10:56:44;;;;;;;5.40;3.95;;;30.50;1.00;;;;;;7361020;19;20022;-61
2022/05/20 10:59:35;;;;;;;10.07;4.20;;;30.00;1.00;;;;;;7360130;19;20014;-61
2022/05/20 11:02:46;;;;;;;8.30;4.03;;;29.40;1.00;;;;;;7363025;19;20015;-61
2022/05/20 11:05:58;;;;;;;8.43;4.13;;;29.40;1.00;;;;;;7359201;19;20075;-62
2022/05/20 11:08:42;;;;;;;5.30;3.90;;;29.90;1.00;;;;;;7360813;19;20011;-61
2022/05/20 11:11:35;;;;;;;6.32;4.18;;;30.20;1.00;;;;;;7357826;19;20022;-61
2022/05/20 11:14:35;;;;;;;8.35;4.53;;;30.40;1.00;;;;;;7362121;19;20017;-61
2022/05/20 11:17:37;;;;;;;7.30;4.10;;;30.20;1.00;;;;;;7363639;19;20133;-61
2022/05/20 11:20:20;;;;;;;9.02;4.20;;;30.20;1.00;;;;;;7355041;19;20029;-62
2022/05/20 11:23:12;;;;;;;9.20;4.47;;;30.10;1.00;;;;;;7385731;19;20050;-61
2022/05/20 11:26:14;;;;;;;7.00;4.13;;;30.00;1.00;;;;;;7357946;19;20017;-61
2022/05/20 11:29:07;;;;;;;7.95;4.20;;;30.00;1.00;;;;;;7360471;19;20166;-61
2022/05/20 11:31:50;;;;;;;7.35;4.20;;;29.80;1.00;;;;;;7363731;19;20013;-62
2022/05/20 11:34:51;;;;;;;9.20;4.40;;;29.90;1.00;;;;;;7361703;19;20473;-60
2022/05/20 11:37:50;;;;;;;9.77;4.60;;;30.30;1.00;;;;;;7363239;19;20014;-61
2022/05/20 11:40:38;;;;;;;8.95;4.28;;;29.90;1.00;;;;;;7357377;19;20027;-61
2022/05/20 11:43:35;;;;;;;7.28;3.67;;;30.10;1.00;;;;;;7362211;19;20020;-61
2022/05/20 11:46:15;;;;;;;7.57;4.18;;;29.70;1.00;;;;;;7355961;19;20002;-60
2022/05/20 11:49:15;;;;;;;7.18;4.03;;;29.80;1.00;;;;;;7360059;19;20014;-61
2022/05/20 11:52:08;;;;;;;5.15;3.78;;;30.10;1.00;;;;;;7362106;19;20077;-61
2022/05/20 11:54:43;;;;;;;6.25;4.13;;;29.60;1.00;;;;;;7358856;19;20010;-61
2022/05/20 11:57:18;;;;;;;8.18;4.20;;;29.60;1.00;;;;;;7362034;19;20002;-61
2022/05/20 12:00:00;;;;;;;6.57;4.30;;;29.80;1.00;;;;;;7358860;19;20022;-61
2022/05/20 12:02:33;;;;;;;7.93;4.20;;;30.20;1.00;;;;;;7371597;19;20769;-61
2022/05/20 12:05:04;;;;;;;11.50;4.18;;;30.30;1.00;;;;;;7365585;19;20024;-61
2022/05/20 12:07:39;;;;;;;6.63;4.25;;;30.30;1.00;;;;;;7390294;19;20010;-62
2022/05/20 12:10:21;;;;;;;11.50;4.53;;;30.30;1.00;;;;;;7363172;19;20078;-62
2022/05/20 12:13:09;;;;;;;6.30;3.97;;;30.20;1.00;;;;;;7370298;19;20806;-62
2022/05/20 12:15:44;;;;;;;9.32;4.00;;;30.60;1.00;;;;;;7364937;19;20907;-61
2022/05/20 12:24:27;;;;;;;6.78;4.20;;;30.50;1.00;;;;;;7367110;19;20099;-61
2022/05/20 12:26:58;;;;;;;8.38;4.15;;;30.50;1.00;;;;;;7367550;19;20117;-61
2022/05/20 12:29:48;;;;;;;8.00;4.78;;;30.00;1.00;;;;;;7363149;19;20010;-61
2022/05/20 12:32:44;;;;;;;8.25;3.80;;;30.10;1.00;;;;;;7369551;19;21586;-62
2022/05/20 12:35:20;;;;;;;5.28;4.20;;;30.40;1.00;;;;;;7364857;19;20034;-62
2022/05/20 12:38:15;;;;;;;6.45;3.95;;;30.30;1.00;;;;;;7389529;19;20142;-61
2022/05/20 12:41:17;;;;;;;5.35;4.18;;;30.50;1.00;;;;;;7364621;19;20070;-63
2022/05/20 12:44:01;;;;;;;11.18;4.20;;;30.60;1.00;;;;;;7368176;19;20015;-61
2022/05/20 12:47:02;;;;;;;10.65;4.47;;;30.60;1.00;;;;;;7368560;19;20045;-62
2022/05/20 12:49:52;;;;;;;7.93;4.05;;;30.60;1.00;;;;;;7360107;19;20007;-62
2022/05/20 12:52:29;;;;;;;5.47;4.03;;;30.60;1.00;;;;;;7367940;19;20011;-62
2022/05/20 12:55:01;;;;;;;6.85;4.18;;;30.70;1.00;;;;;;7365905;19;20017;-61
2022/05/20 12:57:34;;;;;;;5.90;4.15;;;31.00;1.00;;;;;;7368001;19;20050;-62
2022/05/20 13:00:12;;;;;;;5.93;3.90;;;30.90;1.00;;;;;;7359264;19;20022;-62
2022/05/20 13:02:46;;;;;;;7.35;4.22;;;30.90;1.00;;;;;;7368439;19;20470;-62
2022/05/20 13:05:25;;;;;;;8.50;3.92;;;31.30;1.00;;;;;;7366675;19;20603;-62
2022/05/20 13:07:57;;;;;;;6.28;4.10;;;31.00;1.00;;;;;;7389460;19;20432;-61
2022/05/20 13:10:32;;;;;;;5.82;3.72;;;31.10;1.00;;;;;;7363308;19;20486;-61
2022/05/20 13:13:04;;;;;;;8.75;3.92;;;31.20;1.00;;;;;;7369128;19;20453;-62
2022/05/20 13:15:34;;;;;;;6.95;4.05;;;31.10;1.00;;;;;;7367500;19;20014;-62
2022/05/20 13:18:08;;;;;;;5.80;3.80;;;31.00;1.00;;;;;;7366872;19;20044;-60
2022/05/20 13:20:44;;;;;;;5.93;3.72;;;31.40;1.00;;;;;;7363513;19;20808;-62
2022/05/20 13:23:20;;;;;;;6.55;3.95;;;31.40;1.00;;;;;;7370047;19;20023;-62
2022/05/20 13:25:50;;;;;;;7.20;3.42;;;31.50;1.00;;;;;;7386275;19;20122;-62
2022/05/20 13:28:24;;;;;;;12.00;4.45;;;31.60;1.00;;;;;;7367021;19;20085;-61
2022/05/20 13:31:03;;;;;;;6.03;2.70;;;31.60;1.00;;;;;;7361848;19;20007;-62
2022/05/20 13:33:33;;;;;;;6.03;3.25;;;31.80;1.00;;;;;;7368369;19;20104;-61
2022/05/20 13:36:08;;;;;;;7.68;3.33;;;31.50;1.00;;;;;;7364950;19;20073;-62
2022/05/20 13:38:46;;;;;;;7.30;2.80;;;31.40;1.00;;;;;;7362902;19;20022;-62
2022/05/20 13:41:16;;;;;;;11.98;3.08;;;31.30;1.00;;;;;;7361949;19;20019;-62
2022/05/20 13:43:46;;;;;;;7.05;2.80;;;31.70;1.00;;;;;;7389953;19;20089;-62
2022/05/20 13:49:21;;;;;;;5.75;2.60;;;31.70;1.00;;;;;;7359423;19;20480;-62
2022/05/20 13:51:55;;;;;;;5.47;2.78;;;31.90;1.00;;;;;;7364200;19;20545;-62
2022/05/20 13:54:28;;;;;;;6.93;2.80;;;31.90;1.00;;;;;;7365898;19;20365;-61
2022/05/20 13:56:59;;;;;;;10.40;2.90;;;31.90;1.00;;;;;;7366571;19;20499;-61
2022/05/20 13:59:37;;;;;;;4.55;2.50;;;31.90;1.00;;;;;;7362116;19;20034;-61
2022/05/20 14:02:16;;;;;;;10.50;2.55;;;31.80;1.00;;;;;;7367606;19;20018;-62
2022/05/20 14:04:55;;;;;;;6.22;3.38;;;31.80;1.00;;;;;;7388139;19;20031;-61
2022/05/20 14:07:34;;;;;;;6.75;2.83;;;32.10;1.00;;;;;;7366130;19;20007;-61
2022/05/20 14:10:14;;;;;;;6.90;2.63;;;31.50;1.00;;;;;;7358926;19;20014;-63
2022/05/20 14:12:54;;;;;;;12.60;3.13;;;32.30;1.00;;;;;;7366720;19;20010;-63
2022/05/20 14:15:32;;;;;;;5.50;2.97;;;32.50;1.00;;;;;;7365088;19;20015;-61